Algona, Washington
Current Conditions -  °F | °C
As of 10:53 PM on Saturday 20 Dec 2014 (Local Time) from KSEA Reporting Station
Overcast Overcast  
Wind Chill: 54°   Ceiling: 1500
Heat Index: 54°   Visibility: 10mi
Dew Point: 50°   Wind: 24mph
Humidity: 86%   Direction: 210°SSW
Pressure: 29.52"   Gusts: 35mph
Location:  47.31°N, 122.266°W
Report Text: KSEA 210653Z 21021G30KT 10SM FEW009 BKN015 OVC021 12/10 A2952 RMK AO2 PK WND 22040/0617 RAE03 SLP004 P0001 T01220100
Loading
Personal Weather Stations






























Interactive Weather Map New forecast layout! Learn more

10-Day Weather Forecast

Advertisements
Track Severe Weather on mobile